Terminal Aerodrome Forecast
Issued by NWS

Current Version | Previous Version | Text Only | Print | Product List | Glossary On
Versions: 1 2 3 4 5 6 7 8 9 10 11 12 13 14 15 16 17 18 19 20 21
000
FTUS44 KCRP 262300
TAFLRD
TAF
KLRD 262321Z 2700/2724 35014KT P6SM SCT060 BKN120
      TEMPO 2700/2701 -SHRA BKN050
     FM270100 35010KT P6SM SCT050 BKN150
     FM270700 VRB04KT P6SM SCT250=

USA.gov is the U.S. government's official web portal to all federal, state and local government web resources and services.